Map

Track Data

SID SEASON NUMBER BASIN SUBBASIN NAME ISO_TIME NATURE LAT LON WMO_WIND WMO_PRES WMO_AGENCY TRACK_TYPE DIST2LAND LANDFALL IFLAG USA_AGENCY USA_ATCF_ID USA_LAT USA_LON USA_RECORD USA_STATUS USA_WIND USA_PRES USA_SSHS USA_R34_NE USA_R34_SE USA_R34_SW USA_R34_NW USA_R50_NE USA_R50_SE USA_R50_SW USA_R50_NW USA_R64_NE USA_R64_SE USA_R64_SW USA_R64_NW USA_POCI USA_ROCI USA_RMW USA_EYE TOKYO_LAT TOKYO_LON TOKYO_GRADE TOKYO_WIND TOKYO_PRES TOKYO_R50_DIR TOKYO_R50_LONG TOKYO_R50_SHORT TOKYO_R30_DIR TOKYO_R30_LONG TOKYO_R30_SHORT TOKYO_LAND CMA_LAT CMA_LON CMA_CAT CMA_WIND CMA_PRES HKO_LAT HKO_LON HKO_CAT HKO_WIND HKO_PRES NEWDELHI_LAT NEWDELHI_LON NEWDELHI_GRADE NEWDELHI_WIND NEWDELHI_PRES NEWDELHI_CI NEWDELHI_DP NEWDELHI_POCI REUNION_LAT REUNION_LON REUNION_TYPE REUNION_WIND REUNION_PRES REUNION_TNUM REUNION_CI REUNION_RMW REUNION_R34_NE REUNION_R34_SE REUNION_R34_SW REUNION_R34_NW REUNION_R50_NE REUNION_R50_SE REUNION_R50_SW REUNION_R50_NW REUNION_R64_NE REUNION_R64_SE REUNION_R64_SW REUNION_R64_NW BOM_LAT BOM_LON BOM_TYPE BOM_WIND BOM_PRES BOM_TNUM BOM_CI BOM_RMW BOM_R34_NE BOM_R34_SE BOM_R34_SW BOM_R34_NW BOM_R50_NE BOM_R50_SE BOM_R50_SW BOM_R50_NW BOM_R64_NE BOM_R64_SE BOM_R64_SW BOM_R64_NW BOM_ROCI BOM_POCI BOM_EYE BOM_POS_METHOD BOM_PRES_METHOD NADI_LAT NADI_LON NADI_CAT NADI_WIND NADI_PRES WELLINGTON_LAT WELLINGTON_LON WELLINGTON_WIND WELLINGTON_PRES DS824_LAT DS824_LON DS824_STAGE DS824_WIND DS824_PRES TD9636_LAT TD9636_LON TD9636_STAGE TD9636_WIND TD9636_PRES TD9635_LAT TD9635_LON TD9635_WIND TD9635_PRES TD9635_ROCI NEUMANN_LAT NEUMANN_LON NEUMANN_CLASS NEUMANN_WIND NEUMANN_PRES MLC_LAT MLC_LON MLC_CLASS MLC_WIND MLC_PRES USA_GUST BOM_GUST BOM_GUST_PER REUNION_GUST REUNION_GUST_PER USA_SEAHGT USA_SEARAD_NE USA_SEARAD_SE USA_SEARAD_SW USA_SEARAD_NW STORM_SPEED STORM_DIR
1983205N11265 1983 37 EP MM GIL 1983-07-23 12:00:00 TS 11.0000 -95.3000 30 hurdat_epa main 516 509 O_________O___ hurdat_epa EP071983 11.0000 -95.3000 TD 30 -1 11.0000 -95.3000 1 30 13 284
1983205N11265 1983 37 EP MM GIL 1983-07-23 15:00:00 TS 11.1528 -95.9426 main 498 481 P_________P___ EP071983 11.1601 -95.9174 TD 30 -1 11.1309 -96.0183 1 31 13 282
1983205N11265 1983 37 EP MM GIL 1983-07-23 18:00:00 TS 11.2897 -96.6349 30 hurdat_epa main 481 473 O_________P___ hurdat_epa EP071983 11.3000 -96.6000 TD 30 -1 11.2588 -96.7396 1 32 15 280
1983205N11265 1983 37 EP MM GIL 1983-07-23 21:00:00 TS 11.4012 -97.4053 main 478 477 P_________P___ EP071983 11.4075 -97.3851 TD 32 -1 11.3823 -97.4660 1 33 16 278
1983205N11265 1983 37 EP MM GIL 1983-07-24 00:00:00 TS 11.5000 -98.2000 35 hurdat_epa main 490 490 O_________O___ hurdat_epa EP071983 11.5000 -98.2000 TS 35 0 11.5000 -98.2000 2 35 15 278
1983205N11265 1983 37 EP MM GIL 1983-07-24 03:00:00 TS 11.6025 -98.9539 main 509 507 P_________P___ EP071983 11.5997 -98.9576 TS 40 0 11.6108 -98.9430 2 38 15 278
1983205N11265 1983 37 EP MM GIL 1983-07-24 06:00:00 TS 11.7036 -99.6982 45 hurdat_epa main 523 523 O_________P___ hurdat_epa EP071983 11.7000 -99.7000 TS 45 0 11.7143 -99.6927 2 42 15 278
1983205N11265 1983 37 EP MM GIL 1983-07-24 09:00:00 TS 11.8081 -100.443 main 539 539 P_________P___ EP071983 11.8072 -100.443 TS 47 0 11.8107 -100.446 2 46 15 278
1983205N11265 1983 37 EP MM GIL 1983-07-24 12:00:00 TS 11.9000 -101.200 50 hurdat_epa main 561 561 O_________O___ hurdat_epa EP071983 11.9000 -101.200 TS 50 0 11.9000 -101.200 2 50 15 276
1983205N11265 1983 37 EP MM GIL 1983-07-24 15:00:00 TS 11.9601 -102.002 main 581 581 P_________P___ EP071983 11.9500 -102.008 TS 52 0 11.9903 -101.986 2 52 16 274
1983205N11265 1983 37 EP MM GIL 1983-07-24 18:00:00 TS 12.0182 -102.792 55 hurdat_epa main 620 620 O_________P___ hurdat_epa EP071983 12.0000 -102.800 TS 55 0 12.0727 -102.767 2 55 15 276
1983205N11265 1983 37 EP MM GIL 1983-07-24 21:00:00 TS 12.1108 -103.537 main 636 636 P_________P___ EP071983 12.0999 -103.545 TS 57 0 12.1436 -103.515 2 57 14 278
1983205N11265 1983 37 EP MM GIL 1983-07-25 00:00:00 TS 12.2000 -104.200 60 hurdat_epa main 661 661 O_________O___ hurdat_epa EP071983 12.2000 -104.200 TS 60 0 12.2000 -104.200 2 60 12 277
1983205N11265 1983 37 EP MM GIL 1983-07-25 03:00:00 TS 12.2591 -104.741 main 676 676 P_________P___ EP071983 12.2647 -104.723 TS 60 0 12.2425 -104.798 2 58 10 275
1983205N11265 1983 37 EP MM GIL 1983-07-25 06:00:00 TS 12.2928 -105.233 60 hurdat_epa main 694 694 O_________P___ hurdat_epa EP071983 12.3000 -105.200 TS 60 0 12.2714 -105.333 2 57 10 273
1983205N11265 1983 37 EP MM GIL 1983-07-25 09:00:00 TS 12.3030 -105.769 main 715 715 P_________P___ EP071983 12.3075 -105.750 TS 57 0 12.2896 -105.826 2 56 10 270
1983205N11265 1983 37 EP MM GIL 1983-07-25 12:00:00 TS 12.3000 -106.300 55 hurdat_epa main 735 735 O_________O___ hurdat_epa EP071983 12.3000 -106.300 TS 55 0 12.3000 -106.300 2 55 10 270
1983205N11265 1983 37 EP MM GIL 1983-07-25 15:00:00 TS 12.3043 -106.801 main 759 759 P_________P___ EP071983 12.2999 -106.815 TS 57 0 12.3173 -106.761 2 56 10 270
1983205N11265 1983 37 EP MM GIL 1983-07-25 18:00:00 TS 12.3066 -107.278 60 hurdat_epa main 785 785 O_________P___ hurdat_epa EP071983 12.3000 -107.300 TS 60 0 12.3265 -107.212 2 57 9 270
1983205N11265 1983 37 EP MM GIL 1983-07-25 21:00:00 TS 12.3111 -107.722 main 808 808 P_________P___ EP071983 12.3073 -107.735 TS 60 0 12.3225 -107.683 2 58 9 270
1983205N11265 1983 37 EP MM GIL 1983-07-26 00:00:00 TS 12.3000 -108.200 60 hurdat_epa main 839 839 O_________O___ hurdat_epa EP071983 12.3000 -108.200 TS 60 0 12.3000 -108.200 2 60 11 267
1983205N11265 1983 37 EP MM GIL 1983-07-26 03:00:00 TS 12.2646 -108.795 main 879 879 P_________P___ EP071983 12.2651 -108.793 TS 62 0 12.2631 -108.804 2 62 12 265
1983205N11265 1983 37 EP MM GIL 1983-07-26 06:00:00 TS 12.2000 -109.400 65 hurdat_epa main 925 925 O_________O___ hurdat_epa EP071983 12.2000 -109.400 HU 65 1 12.2000 -109.400 3 65 11 262
1983205N11265 1983 37 EP MM GIL 1983-07-26 09:00:00 TS 12.1068 -109.907 main 964 964 P_________P___ EP071983 12.1073 -109.907 HU 67 1 12.1054 -109.907 3 67 10 258
1983205N11265 1983 37 EP MM GIL 1983-07-26 12:00:00 TS 12.0000 -110.400 70 hurdat_epa main 1004 1004 O_________O___ hurdat_epa EP071983 12.0000 -110.400 HU 70 1 12.0000 -110.400 4 70 10 258
1983205N11265 1983 37 EP MM GIL 1983-07-26 15:00:00 TS 11.8904 -110.938 main 1046 1046 P_________P___ EP071983 11.8923 -110.928 HU 72 1 11.8846 -110.971 4 72 11 259
1983205N11265 1983 37 EP MM GIL 1983-07-26 18:00:00 TS 11.7946 -111.520 75 hurdat_epa main 1095 1095 O_________P___ hurdat_epa EP071983 11.8000 -111.500 HU 75 1 11.7786 -111.580 4 75 12 262
1983205N11265 1983 37 EP MM GIL 1983-07-26 21:00:00 TS 11.7227 -112.168 main 1154 1154 P_________P___ EP071983 11.7276 -112.158 HU 77 1 11.7082 -112.199 4 77 13 266
1983205N11265 1983 37 EP MM GIL 1983-07-27 00:00:00 TS 11.7000 -112.800 80 hurdat_epa main 1199 1199 O_________O___ hurdat_epa EP071983 11.7000 -112.800 HU 80 1 11.7000 -112.800 4 80 11 270
1983205N11265 1983 37 EP MM GIL 1983-07-27 03:00:00 TS 11.7166 -113.321 main 1237 1237 P_________P___ EP071983 11.7047 -113.315 HU 80 1 11.7522 -113.339 4 80 10 277
1983205N11265 1983 37 EP MM GIL 1983-07-27 06:00:00 TS 11.8179 -113.814 80 hurdat_epa main 1268 1267 O_________P___ hurdat_epa EP071983 11.8000 -113.800 HU 80 1 11.8717 -113.858 4 80 11 287
1983205N11265 1983 37 EP MM GIL 1983-07-27 09:00:00 TS 12.0175 -114.350 main 1299 1290 P_________P___ EP071983 12.0049 -114.343 HU 80 1 12.0554 -114.373 4 80 12 294
1983205N11265 1983 37 EP MM GIL 1983-07-27 12:00:00 TS 12.3000 -114.900 80 hurdat_epa main 1294 1286 O_________O___ hurdat_epa EP071983 12.3000 -114.900 HU 80 1 12.3000 -114.900 4 80 12 299
1983205N11265 1983 37 EP MM GIL 1983-07-27 15:00:00 TS 12.6211 -115.444 main 1286 1275 P_________P___ EP071983 12.6348 -115.443 HU 72 1 12.5799 -115.449 4 76 13 302
1983205N11265 1983 37 EP MM GIL 1983-07-27 18:00:00 TS 12.9792 -116.003 65 hurdat_epa main 1276 1271 O_________P___ hurdat_epa EP071983 13.0000 -116.000 HU 65 1 12.9169 -116.013 4 72 13 302
1983205N11265 1983 37 EP MM GIL 1983-07-27 21:00:00 TS 13.3307 -116.594 main 1280 1270 P_________P___ EP071983 13.3424 -116.593 HU 65 1 13.2955 -116.596 4 68 14 302
1983205N11265 1983 37 EP MM GIL 1983-07-28 00:00:00 TS 13.7000 -117.200 65 hurdat_epa main 1278 1276 O_________O___ hurdat_epa EP071983 13.7000 -117.200 HU 65 1 13.7000 -117.200 4 65 14 303
1983205N11265 1983 37 EP MM GIL 1983-07-28 03:00:00 TS 14.0914 -117.797 main 1282 1278 P_________P___ EP071983 14.0847 -117.785 HU 65 1 14.1114 -117.833 4 66 14 304
1983205N11265 1983 37 EP MM GIL 1983-07-28 06:00:00 TS 14.5106 -118.421 65 hurdat_epa main 1289 1288 O_________P___ hurdat_epa EP071983 14.5000 -118.400 HU 65 1 14.5423 -118.485 4 67 15 304
1983205N11265 1983 37 EP MM GIL 1983-07-28 09:00:00 TS 14.9567 -119.106 main 1301 1301 P_________P___ EP071983 14.9500 -119.093 HU 67 1 14.9770 -119.145 4 68 16 304
1983205N11265 1983 37 EP MM GIL 1983-07-28 12:00:00 TS 15.4000 -119.800 70 hurdat_epa main 1313 1311 O_________O___ hurdat_epa EP071983 15.4000 -119.800 HU 70 1 15.4000 -119.800 4 70 16 303
1983205N11265 1983 37 EP MM GIL 1983-07-28 15:00:00 TS 15.8123 -120.455 main 1325 1316 P_________P___ EP071983 15.8148 -120.465 HU 67 1 15.8048 -120.425 4 68 15 303
1983205N11265 1983 37 EP MM GIL 1983-07-28 18:00:00 TS 16.1985 -121.086 65 hurdat_epa main 1334 1333 O_________P___ hurdat_epa EP071983 16.2000 -121.100 HU 65 1 16.1938 -121.043 4 67 14 302
1983205N11265 1983 37 EP MM GIL 1983-07-28 21:00:00 TS 16.5638 -121.697 main 1346 1346 P_________P___ EP071983 16.5648 -121.708 HU 65 1 16.5610 -121.665 4 66 14 301
1983205N11265 1983 37 EP MM GIL 1983-07-29 00:00:00 TS 16.9000 -122.300 65 hurdat_epa main 1370 1370 O_________O___ hurdat_epa EP071983 16.9000 -122.300 HU 65 1 16.9000 -122.300 4 65 13 299
1983205N11265 1983 37 EP MM GIL 1983-07-29 03:00:00 TS 17.2098 -122.900 main 1397 1397 P_________P___ EP071983 17.2146 -122.878 HU 65 1 17.1953 -122.966 4 63 13 297
1983205N11265 1983 37 EP MM GIL 1983-07-29 06:00:00 TS 17.4911 -123.536 65 hurdat_epa main 1426 1426 O_________P___ hurdat_epa EP071983 17.5000 -123.500 HU 65 1 17.4645 -123.644 4 62 14 292
1983205N11265 1983 37 EP MM GIL 1983-07-29 09:00:00 TS 17.7442 -124.263 main 1468 1459 P_________P___ EP071983 17.7501 -124.243 HU 62 0 17.7265 -124.325 4 61 15 290
1983205N11265 1983 37 EP MM GIL 1983-07-29 12:00:00 TS 18.0000 -125.000 60 hurdat_epa main 1490 1490 O_________O___ hurdat_epa EP071983 18.0000 -125.000 TS 60 0 18.0000 -125.000 2 60 14 293
1983205N11265 1983 37 EP MM GIL 1983-07-29 15:00:00 TS 18.2938 -125.657 main 1515 1515 P_________P___ EP071983 18.2846 -125.665 TS 55 0 18.3214 -125.633 2 57 14 297
1983205N11265 1983 37 EP MM GIL 1983-07-29 18:00:00 TS 18.6139 -126.291 50 hurdat_epa main 1537 1537 O_________P___ hurdat_epa EP071983 18.6000 -126.300 TS 50 0 18.6555 -126.263 2 55 14 299
1983205N11265 1983 37 EP MM GIL 1983-07-29 21:00:00 TS 18.9644 -126.918 main 1553 1553 P_________P___ EP071983 18.9569 -126.920 TS 50 0 18.9868 -126.912 2 52 14 299
1983205N11265 1983 37 EP MM GIL 1983-07-30 00:00:00 TS 19.3000 -127.600 50 hurdat_epa main 1588 1588 O_________O___ hurdat_epa EP071983 19.3000 -127.600 TS 50 0 19.3000 -127.600 2 50 15 293
1983205N11265 1983 37 EP MM GIL 1983-07-30 03:00:00 TS 19.5740 -128.422 main 1635 1635 P_________P___ EP071983 19.5652 -128.435 TS 47 0 19.6005 -128.381 2 47 17 288
1983205N11265 1983 37 EP MM GIL 1983-07-30 06:00:00 TS 19.8189 -129.275 45 hurdat_epa main 1699 1699 O_________P___ hurdat_epa EP071983 19.8000 -129.300 TS 45 0 19.8758 -129.199 2 45 16 288
1983205N11265 1983 37 EP MM GIL 1983-07-30 09:00:00 TS 20.0881 -130.070 main 1751 1751 P_________P___ EP071983 20.0797 -130.087 TS 42 0 20.1130 -130.018 2 42 15 289
1983205N11265 1983 37 EP MM GIL 1983-07-30 12:00:00 TS 20.3000 -130.800 40 hurdat_epa main 1802 1802 O_________O___ hurdat_epa EP071983 20.3000 -130.800 TS 40 0 20.3000 -130.800 2 40 13 283
1983205N11265 1983 37 EP MM GIL 1983-07-30 15:00:00 TS 20.3857 -131.426 main 1851 1851 P_________P___ EP071983 20.3719 -131.408 TS 37 0 20.4273 -131.478 2 37 12 276
1983205N11265 1983 37 EP MM GIL 1983-07-30 18:00:00 TS 20.4268 -132.029 35 hurdat_epa main 1905 1905 O_________P___ hurdat_epa EP071983 20.4000 -132.000 TS 35 0 20.5072 -132.117 2 35 12 276
1983205N11265 1983 37 EP MM GIL 1983-07-30 21:00:00 TS 20.5146 -132.700 main 1959 1959 P_________P___ EP071983 20.4999 -132.685 TS 32 -1 20.5586 -132.747 2 32 13 278
1983205N11265 1983 37 EP MM GIL 1983-07-31 00:00:00 TS 20.6000 -133.400 30 hurdat_epa main 1993 1993 O_________O___ hurdat_epa EP071983 20.6000 -133.400 TD 30 -1 20.6000 -133.400 1 30 13 276
1983205N11265 1983 37 EP MM GIL 1983-07-31 03:00:00 TS 20.6580 -134.093 main 2028 2028 P_________P___ EP071983 20.6570 -134.085 TD 30 -1 20.6607 -134.117 1 30 13 274
1983205N11265 1983 37 EP MM GIL 1983-07-31 06:00:00 TS 20.7036 -134.816 30 hurdat_epa main 2074 2008 O_________P___ hurdat_epa EP071983 20.7000 -134.800 TD 30 -1 20.7142 -134.863 1 30 14 274
1983205N11265 1983 37 EP MM GIL 1983-07-31 09:00:00 TS 20.7470 -135.601 main 2008 1925 P_________P___ EP071983 20.7424 -135.593 TD 30 -1 20.7606 -135.627 1 30 15 274
1983205N11265 1983 37 EP MM GIL 1983-07-31 12:00:00 TS 20.8000 -136.400 30 hurdat_epa main 1925 1852 O_________O___ hurdat_epa EP071983 20.8000 -136.400 TD 30 -1 20.8000 -136.400 1 30 15 276
1983205N11265 1983 37 EP MM GIL 1983-07-31 15:00:00 TS 20.8947 -137.154 main 1842 1769 P_________P___ EP071983 20.9145 -137.150 TD 30 -1 20.8354 -137.168 1 30 14 277
1983205N11265 1983 37 EP MM GIL 1983-07-31 18:00:00 TS 20.9660 -137.911 30 hurdat_epa main 1769 1687 O_________P___ hurdat_epa EP071983 21.0000 -137.900 TD 30 -1 20.8638 -137.943 1 30 15 272
1983205N11265 1983 37 EP MM GIL 1983-07-31 21:00:00 TS 20.9506 -138.705 main 1687 1603 P_________P___ EP071983 20.9723 -138.700 TD 30 -1 20.8853 -138.721 1 30 15 267
1983205N11265 1983 37 EP MM GIL 1983-08-01 00:00:00 TS 20.9000 -139.500 30 hurdat_epa main 1603 1530 O_________O___ hurdat_epa EP071983 20.9000 -139.500 TD 30 -1 20.9000 -139.500 1 30 15 266
1983205N11265 1983 37 EP CP GIL 1983-08-01 03:00:00 TS 20.8504 -140.258 main 1520 1447 P_________P___ EP071983 20.8345 -140.250 TD 30 -1 20.8981 -140.279 1 30 14 267
1983205N11265 1983 37 EP CP GIL 1983-08-01 06:00:00 TS 20.8215 -141.014 30 hurdat_epa main 1447 1364 O_________P___ hurdat_epa EP071983 20.8000 -141.000 TD 30 -1 20.8913 -141.058 1 30 15 270
1983205N11265 1983 37 EP CP GIL 1983-08-01 09:00:00 TS 20.8489 -141.819 main 1364 1292 P_________P___ EP071983 20.8352 -141.830 TD 30 -1 20.8888 -141.833 1 30 15 273
1983205N11265 1983 37 EP CP GIL 1983-08-01 12:00:00 TS 20.9000 -142.568 30 hurdat_epa main 1282 1230 O_________O___ hurdat_epa EP071983 20.9000 -142.600 TD 30 -1 20.9000 -142.600 1 30 12 275
1983205N11265 1983 37 EP CP GIL 1983-08-01 15:00:00 TS 20.9466 -143.145 main 1230 1169 P_________P___ EP071983 20.9487 -143.128 TD 32 -1 20.9376 -143.329 1 31 11 275
1983205N11265 1983 37 EP CP GIL 1983-08-01 18:00:00 TS 20.9979 -143.771 35 hurdat_epa main 1159 1078 O_________P___ hurdat_epa EP071983 21.0000 -143.700 TS 35 0 20.9895 -144.055 1 32 14 274
1983205N11265 1983 37 EP CP GIL 1983-08-01 21:00:00 TS 21.0558 -144.648 main 1078 985 P_________P___ EP071983 21.0581 -144.605 TS 35 0 21.0467 -144.804 1 33 17 273
1983205N11265 1983 37 EP CP GIL 1983-08-02 00:00:00 TS 21.1000 -145.600 35 hurdat_epa main 975 893 O_________O___ hurdat_epa EP071983 21.1000 -145.600 TS 35 0 21.1000 -145.600 2 35 17 272
1983205N11265 1983 37 EP CP GIL 1983-08-02 03:00:00 TS 21.1048 -146.451 main 883 802 P_________P___ EP071983 21.0990 -146.443 TS 35 0 21.1282 -146.483 2 35 16 270
1983205N11265 1983 37 EP CP GIL 1983-08-02 06:00:00 TS 21.1100 -147.323 35 hurdat_epa main 802 711 O_________P___ hurdat_epa EP071983 21.1000 -147.300 TS 35 0 21.1501 -147.413 2 35 17 271
1983205N11265 1983 37 EP CP GIL 1983-08-02 09:00:00 TS 21.1483 -148.300 main 700 613 P_________P___ EP071983 21.1424 -148.285 TS 35 0 21.1718 -148.362 2 35 18 273
1983205N11265 1983 37 EP CP GIL 1983-08-02 12:00:00 TS 21.2000 -149.300 35 hurdat_epa main 603 515 O_________O___ hurdat_epa EP071983 21.2000 -149.300 TS 35 0 21.2000 -149.300 2 35 18 273
1983205N11265 1983 37 EP CP GIL 1983-08-02 15:00:00 TS 21.2464 -150.264 main 506 434 P_________P___ EP071983 21.2497 -150.280 TS 35 0 21.2334 -150.202 2 35 18 273
1983205N11265 1983 37 EP CP GIL 1983-08-02 18:00:00 TS 21.2952 -151.178 35 hurdat_epa main 425 354 O_________P___ hurdat_epa EP071983 21.3000 -151.200 TS 35 0 21.2759 -151.088 2 35 16 273
1983205N11265 1983 37 EP CP GIL 1983-08-02 21:00:00 TS 21.3395 -152.009 main 354 292 P_________P___ EP071983 21.3418 -152.023 TS 35 0 21.3305 -151.955 2 35 15 274
1983205N11265 1983 37 EP CP GIL 1983-08-03 00:00:00 TS 21.4000 -152.800 35 hurdat_epa main 292 236 O_________O___ hurdat_epa EP071983 21.4000 -152.800 TS 35 0 21.4000 -152.800 2 35 15 276
1983205N11265 1983 37 EP CP GIL 1983-08-03 03:00:00 TS 21.4870 -153.598 main 236 197 P_________P___ EP071983 21.4921 -153.600 TS 37 0 21.4666 -153.590 2 36 15 277
1983205N11265 1983 37 EP CP GIL 1983-08-03 06:00:00 TS 21.5902 -154.393 40 hurdat_epa main 188 137 O_________P___ hurdat_epa EP071983 21.6000 -154.400 TS 40 0 21.5510 -154.364 2 37 15 277
1983205N11265 1983 37 EP CP GIL 1983-08-03 09:00:00 TS 21.6794 -155.174 main 130 105 P_________P___ EP071983 21.6843 -155.178 TS 40 0 21.6601 -155.156 2 38 15 278
1983205N11265 1983 37 EP CP GIL 1983-08-03 12:00:00 TS 21.8000 -156.000 40 hurdat_epa main 111 105 O_________O___ hurdat_epa EP071983 21.8000 -156.000 TS 40 0 21.8000 -156.000 2 40 17 281
1983205N11265 1983 37 EP CP GIL 1983-08-03 15:00:00 TS 21.9828 -156.922 main 106 59 P_________P___ EP071983 21.9846 -156.913 TS 40 0 21.9759 -156.962 2 40 18 283
1983205N11265 1983 37 EP CP GIL 1983-08-03 18:00:00 TS 22.1957 -157.915 40 hurdat_epa main 67 53 O_________P___ hurdat_epa EP071983 22.2000 -157.900 TS 40 0 22.1785 -157.977 2 40 19 283
1983205N11265 1983 37 EP CP GIL 1983-08-03 21:00:00 TS 22.4105 -158.975 main 45 35 P_________P___ EP071983 22.4153 -158.972 TS 40 0 22.3915 -159.003 2 40 20 282
1983205N11265 1983 37 EP CP GIL 1983-08-04 00:00:00 TS 22.6000 -160.000 40 hurdat_epa main 63 63 O_________O___ hurdat_epa EP071983 22.6000 -160.000 TS 40 0 22.6000 -160.000 2 40 18 280
1983205N11265 1983 37 EP CP GIL 1983-08-04 03:00:00 TS 22.7087 -160.852 main 137 137 P_________P___ EP071983 22.6911 -160.816 TS 40 0 22.7784 -160.880 2 40 16 279
1983205N11265 1983 37 EP CP GIL 1983-08-04 06:00:00 TS 22.8304 -161.666 40 hurdat_epa main 214 214 O_________P___ hurdat_epa EP071983 22.8000 -161.600 TS 40 0 22.9522 -161.730 2 40 16 282
1983205N11265 1983 37 EP CP GIL 1983-08-04 09:00:00 TS 23.0526 -162.557 main 312 312 P_________P___ EP071983 23.0347 -162.520 TS 40 0 23.1251 -162.589 2 40 18 286
1983205N11265 1983 37 EP CP GIL 1983-08-04 12:00:00 TS 23.3000 -163.500 40 hurdat_epa main 406 406 O_________O___ hurdat_epa EP071983 23.3000 -163.500 TS 40 0 23.3000 -163.500 2 40 18 284
1983205N11265 1983 37 EP CP GIL 1983-08-04 15:00:00 TS 23.5069 -164.472 main 510 510 P_________P___ EP071983 23.5140 -164.470 TS 37 0 23.4780 -164.492 2 37 19 282
1983205N11265 1983 37 EP CP GIL 1983-08-04 18:00:00 TS 23.6913 -165.511 35 hurdat_epa main 613 613 O_________P___ hurdat_epa EP071983 23.7000 -165.500 TS 35 0 23.6562 -165.554 2 35 20 280
1983205N11265 1983 37 EP CP GIL 1983-08-04 21:00:00 TS 23.8539 -166.631 main 727 727 P_________P___ EP071983 23.8596 -166.622 TS 32 -1 23.8312 -166.665 2 32 21 278
1983205N11265 1983 37 EP CP GIL 1983-08-05 00:00:00 TS 24.0000 -167.800 30 hurdat_epa main 848 O_________O___ hurdat_epa EP071983 24.0000 -167.800 TD 30 -1 24.0000 -167.800 1 30 22 278

About IBTrACS Database

This database is a web-friendly format of International Best Track Archive for Climate Stewardship (IBTrACS), a global best track data archive curated by NOAA dating back to 1842.

Updated: 2021-12-01